Estación Meteorológica Peña el Pijo (Robertgarden) [ 01/30/23 14:24:02 CET ]

Fecha Hora Presion(HPa) Temp (°C) Humedad % Rocio (°C) Viento ( m/s) Direccion Lluvia 1Hora(mm) Lluvia 24H(mm) LLuvia Total(mm)
2012-Aug-30 01:01:15 1015.100 17.4 48 6.2         178.19
2012-Aug-30 02:01:16 1014.800 18.2 47 6.6         178.19
2012-Aug-30 03:05:26 1014.700 16.9 52 7.0         178.19
2012-Aug-30 04:01:16 1014.400 15.6 60 7.9         178.19
2012-Aug-30 05:01:16 1014.000 16.4 61 8.9         178.19
2012-Aug-30 06:01:12 1014.100 16.8 60 9.0         178.19
2012-Aug-30 07:01:14 1013.900 15.9 60 8.2         178.19
2012-Aug-30 08:01:12 1014.400 14.9 61 7.4         178.19
2012-Aug-30 09:01:13 1014.600 19.9 54 10.3         178.19
2012-Aug-30 10:01:13 1014.500 26.3 35 9.5         178.19
2012-Aug-30 11:01:17 1014.700 28.9 26 7.2         178.19
2012-Aug-30 12:01:18 1014.500 30.8 23 7.1         178.19
2012-Aug-30 13:01:14 1013.800 32.6 20 6.8 0.9 NE     178.19
2012-Aug-30 14:01:20 1013.400 34.5 18 6.3 0.8 SSW     178.19
2012-Aug-30 15:01:12 1013.200 35.2 17 5.9         178.19
2012-Aug-30 16:01:15 1012.600 34.2 17 5.1         178.19
2012-Aug-30 17:01:17 1012.800 31.8 20 6.1         178.19
2012-Aug-30 18:01:17 1012.900 29.6 20 4.3 0.7 W     178.19
2012-Aug-30 19:01:16 1013.500 27.1 23 4.0         178.19
2012-Aug-30 20:01:14 1013.700 25.4 25 3.7 1.2 NE     178.19
2012-Aug-30 21:01:18 1014.400 23.9 42 10.2         178.19
2012-Aug-30 22:01:16 1015.500 22.0 46 9.8         178.19
2012-Aug-30 23:01:12 1015.900 20.9 58 12.3         178.19

Temperatura Máxima:35°    Temperatura Mínima:14°
Presión Máxima:1015.900 Hpa    Presión Mínima:1012.600 Hpa


Volver